Time;durP1;ratioP1;P1;durP2;ratioP2;P2;SDS_P1;SDS_P2;PMS_P1;PMS_P2;Temp;Humidity;BMP_temperature;BMP_pressure;BME280_temperature;BME280_humidity;BME280_pressure;Samples;Min_cycle;Max_cycle;Signal;HPM_P1;HPM_P2
2021/06/29 00:01:51;;;;;;;7.70;6.87;;;;;;;15.40;61.16;100096.84;154043;1101;103308;-76
2021/06/29 00:04:54;;;;;;;8.03;6.80;;;;;;;15.43;61.07;100093.77;154055;1101;103131;-76
2021/06/29 00:07:57;;;;;;;8.53;7.57;;;;;;;15.45;61.11;100086.34;154041;1101;103122;-77
2021/06/29 00:11:00;;;;;;;9.10;8.10;;;;;;;15.48;60.84;100085.97;154123;1096;103190;-77
2021/06/29 00:14:03;;;;;;;9.57;7.70;;;;;;;15.42;60.77;100081.36;154228;1101;103219;-77
2021/06/29 00:17:08;;;;;;;11.07;8.20;;;;;;;15.35;61.20;100078.58;153936;1101;103592;-78
2021/06/29 00:20:15;;;;;;;8.27;6.83;;;;;;;15.26;61.17;100072.49;154251;1093;103215;-78
2021/06/29 00:23:18;;;;;;;8.60;7.05;;;;;;;15.28;61.52;100075.82;153994;1101;103111;-77
2021/06/29 00:26:20;;;;;;;10.27;7.03;;;;;;;15.19;61.19;100085.00;153953;1101;103116;-77
2021/06/29 00:29:23;;;;;;;9.50;7.13;;;;;;;15.07;61.72;100084.65;154267;1101;103058;-81
2021/06/29 00:32:26;;;;;;;8.77;7.10;;;;;;;14.97;61.73;100078.70;153991;1101;103544;-82
2021/06/29 00:35:29;;;;;;;9.13;7.53;;;;;;;15.01;61.82;100084.55;154264;1093;103125;-78
2021/06/29 00:38:32;;;;;;;8.20;7.40;;;;;;;15.02;61.74;100086.23;153954;1101;103241;-79
2021/06/29 00:41:35;;;;;;;9.90;8.17;;;;;;;14.98;61.82;100079.56;153935;1101;103565;-78
2021/06/29 00:44:38;;;;;;;8.83;7.70;;;;;;;14.99;62.14;100070.47;154087;1101;103241;-76
2021/06/29 00:47:41;;;;;;;9.55;6.75;;;;;;;14.93;62.34;100072.05;154013;1101;103257;-78
2021/06/29 00:50:45;;;;;;;7.53;5.90;;;;;;;14.95;62.16;100066.48;154005;1093;103113;-78
2021/06/29 00:53:49;;;;;;;8.03;6.35;;;;;;;14.99;62.03;100075.84;153967;1101;103583;-79
2021/06/29 00:56:52;;;;;;;7.97;6.37;;;;;;;14.97;62.05;100069.82;153935;1093;103214;-78
2021/06/29 00:59:55;;;;;;;8.50;7.13;;;;;;;15.03;62.10;100071.76;154020;1093;103218;-78
2021/06/29 01:02:58;;;;;;;10.50;7.40;;;;;;;14.98;62.21;100072.33;153984;1101;103223;-78
2021/06/29 01:06:01;;;;;;;8.60;7.55;;;;;;;14.95;62.11;100069.17;154020;1101;103190;-79
2021/06/29 01:09:06;;;;;;;9.30;8.07;;;;;;;14.81;62.57;100068.99;153949;1101;103209;-81
2021/06/29 01:12:11;;;;;;;8.63;7.40;;;;;;;14.74;62.59;100073.42;154002;1101;103137;-77
2021/06/29 01:15:15;;;;;;;8.77;6.93;;;;;;;14.69;62.90;100081.22;154002;1101;103214;-77
2021/06/29 01:18:26;;;;;;;7.70;6.00;;;;;;;14.61;62.53;100078.63;153974;1093;103214;-76
2021/06/29 01:21:35;;;;;;;8.40;7.35;;;;;;;14.56;62.83;100075.63;153979;1101;103128;-74
2021/06/29 01:24:41;;;;;;;8.63;7.50;;;;;;;14.60;62.73;100072.41;153974;1093;103489;-77
2021/06/29 01:27:53;;;;;;;9.70;7.73;;;;;;;14.61;62.98;100059.84;153959;1101;103166;-76
2021/06/29 01:31:05;;;;;;;8.63;7.33;;;;;;;14.61;62.97;100074.09;154045;1101;103137;-75
2021/06/29 01:34:07;;;;;;;;;;;;;;;14.60;63.19;100067.03;154058;1101;103185;-75
2021/06/29 01:37:10;;;;;;;8.35;6.98;;;;;;;14.61;62.99;100062.52;154035;1094;103195;-76
2021/06/29 01:40:17;;;;;;;9.53;7.70;;;;;;;14.59;63.38;100065.38;153950;1101;103193;-76
2021/06/29 01:43:23;;;;;;;9.48;6.93;;;;;;;14.54;63.06;100057.00;154151;1093;103195;-76
2021/06/29 01:46:29;;;;;;;7.35;6.38;;;;;;;14.50;63.12;100059.22;154162;1101;103096;-75
2021/06/29 01:49:32;;;;;;;7.80;6.88;;;;;;;14.48;63.38;100050.52;153948;1101;103192;-75
2021/06/29 01:52:35;;;;;;;7.73;6.83;;;;;;;14.41;63.32;100052.26;154014;1101;103113;-73
2021/06/29 01:55:38;;;;;;;8.57;6.97;;;;;;;14.42;63.10;100042.38;153992;1093;103200;-73
2021/06/29 01:58:42;;;;;;;8.60;7.70;;;;;;;14.39;63.30;100048.09;154074;1101;103224;-74
2021/06/29 02:01:45;;;;;;;7.78;7.00;;;;;;;14.39;63.47;100048.92;154202;1101;103291;-72
2021/06/29 02:04:48;;;;;;;8.83;7.73;;;;;;;14.42;63.61;100048.57;154011;1101;103267;-79
2021/06/29 02:07:51;;;;;;;8.43;7.53;;;;;;;14.33;63.69;100044.30;154317;1101;103141;-79
2021/06/29 02:10:54;;;;;;;8.50;7.60;;;;;;;14.27;63.70;100039.66;154014;1101;103346;-80
2021/06/29 02:13:57;;;;;;;8.43;6.90;;;;;;;14.34;63.69;100043.30;154124;1101;103256;-79
2021/06/29 02:17:00;;;;;;;9.93;6.87;;;;;;;14.40;63.88;100039.88;154017;1101;103138;-81
2021/06/29 02:20:05;;;;;;;8.20;7.07;;;;;;;14.42;63.88;100031.64;154213;1093;103216;-80
2021/06/29 02:23:08;;;;;;;9.13;7.60;;;;;;;14.46;63.91;100039.13;154304;1101;103105;-78
2021/06/29 02:26:11;;;;;;;7.67;6.80;;;;;;;14.40;63.92;100031.81;154034;1101;103101;-81
2021/06/29 02:29:14;;;;;;;9.97;6.97;;;;;;;14.32;63.83;100031.91;154287;1093;103150;-80
2021/06/29 02:32:17;;;;;;;9.15;7.45;;;;;;;14.30;63.88;100029.41;154032;1101;103125;-81
2021/06/29 02:35:20;;;;;;;8.30;6.73;;;;;;;14.32;64.14;100029.22;154040;1093;103255;-80
2021/06/29 02:38:26;;;;;;;7.43;6.10;;;;;;;14.31;64.18;100027.55;154250;1093;103221;-82
2021/06/29 02:41:29;;;;;;;9.07;6.67;;;;;;;14.34;64.20;100029.88;154434;1093;103580;-79
2021/06/29 02:44:34;;;;;;;8.07;7.27;;;;;;;14.39;64.43;100035.50;154013;1101;103215;-80
2021/06/29 02:47:38;;;;;;;7.97;6.93;;;;;;;14.44;64.04;100029.60;154127;1093;103120;-78
2021/06/29 02:50:42;;;;;;;9.30;7.53;;;;;;;14.49;64.31;100033.41;154193;1101;103199;-81
2021/06/29 02:53:45;;;;;;;8.97;7.50;;;;;;;14.53;64.34;100023.96;154167;1093;103160;-87
2021/06/29 02:56:48;;;;;;;8.07;7.27;;;;;;;14.63;64.39;100022.89;154275;1093;103165;-83
2021/06/29 02:59:50;;;;;;;8.97;6.80;;;;;;;14.70;64.38;100023.80;154296;1101;103163;-82
2021/06/29 03:02:54;;;;;;;7.90;5.95;;;;;;;14.70;64.44;100023.80;154518;1101;103220;-82
2021/06/29 03:05:56;;;;;;;6.95;6.05;;;;;;;14.78;64.19;100034.46;154041;1101;103190;-79
2021/06/29 03:09:01;;;;;;;7.87;6.93;;;;;;;14.84;64.58;100027.52;154036;1101;103138;-73
2021/06/29 03:12:05;;;;;;;8.70;7.83;;;;;;;14.91;64.65;100044.53;153988;1101;103192;-77
2021/06/29 03:15:10;;;;;;;8.00;7.20;;;;;;;15.00;64.68;100035.36;154088;1101;103164;-77
2021/06/29 03:18:13;;;;;;;7.63;6.60;;;;;;;15.18;64.48;100036.81;154037;1093;103124;-78
2021/06/29 03:21:16;;;;;;;8.17;6.23;;;;;;;15.42;64.50;100019.52;153948;1101;103267;-74
2021/06/29 03:24:19;;;;;;;7.70;6.23;;;;;;;15.68;64.04;100014.41;153967;1094;103238;-74
2021/06/29 03:27:22;;;;;;;7.53;6.73;;;;;;;15.97;64.29;100017.16;153984;1093;103192;-77
2021/06/29 03:30:25;;;;;;;7.97;7.17;;;;;;;16.31;64.10;100016.39;153960;1093;103140;-75
2021/06/29 03:33:28;;;;;;;8.03;7.20;;;;;;;16.64;63.72;100023.85;153981;1093;103310;-74
2021/06/29 03:36:31;;;;;;;9.37;6.93;;;;;;;16.92;63.59;100022.98;153938;1093;103180;-75
2021/06/29 03:39:35;;;;;;;8.60;7.05;;;;;;;17.17;63.69;100018.75;154020;1101;103159;-75
2021/06/29 03:42:38;;;;;;;8.40;7.00;;;;;;;17.45;63.31;100023.17;153936;1093;103996;-74
2021/06/29 03:45:41;;;;;;;6.55;5.80;;;;;;;17.71;63.43;100021.59;153954;1101;103122;-75
2021/06/29 03:48:44;;;;;;;5.20;4.70;;;;;;;18.15;63.50;100017.45;153967;1093;103584;-75
2021/06/29 03:51:47;;;;;;;5.40;4.90;;;;;;;18.69;63.16;100027.16;153938;1101;103310;-75
2021/06/29 03:54:50;;;;;;;5.60;5.10;;;;;;;19.20;62.76;100031.77;153978;1101;103131;-75
2021/06/29 03:57:53;;;;;;;5.63;5.13;;;;;;;19.59;62.44;100024.50;153978;1093;103139;-75
2021/06/29 04:00:56;;;;;;;5.90;5.40;;;;;;;19.93;62.18;100024.29;153917;1101;103189;-75
2021/06/29 04:04:00;;;;;;;6.10;5.50;;;;;;;20.24;61.93;100025.28;153977;1101;103263;-75
2021/06/29 04:07:06;;;;;;;5.03;4.40;;;;;;;20.53;61.72;100026.45;154034;1093;103125;-76
2021/06/29 04:10:11;;;;;;;6.65;4.38;;;;;;;20.87;61.40;100025.08;153984;1101;103218;-75
2021/06/29 04:13:14;;;;;;;4.75;4.25;;;;;;;21.15;61.09;100029.97;153992;1094;103142;-75
2021/06/29 04:16:17;;;;;;;4.90;4.40;;;;;;;21.42;60.91;100032.33;153940;1093;103214;-76
2021/06/29 04:19:20;;;;;;;4.60;4.20;;;;;;;21.68;60.60;100035.74;153954;1093;103281;-75
2021/06/29 04:22:23;;;;;;;5.17;4.63;;;;;;;21.90;60.55;100028.72;153970;1101;103259;-75
2021/06/29 04:25:26;;;;;;;4.93;4.30;;;;;;;22.09;60.32;100025.90;153985;1101;103124;-76
2021/06/29 04:28:29;;;;;;;6.55;4.40;;;;;;;22.29;60.00;100031.86;153958;1093;103126;-76
2021/06/29 04:31:32;;;;;;;4.87;4.37;;;;;;;22.46;59.81;100031.14;154088;1101;103129;-76
2021/06/29 04:34:35;;;;;;;7.03;5.77;;;;;;;22.62;59.89;100035.88;154000;1101;103192;-75
2021/06/29 04:37:38;;;;;;;6.73;5.20;;;;;;;22.76;59.43;100035.63;153963;1101;105138;-74
2021/06/29 04:40:41;;;;;;;5.17;4.33;;;;;;;22.86;59.48;100020.33;153992;1101;103102;-74
2021/06/29 04:43:45;;;;;;;4.55;4.05;;;;;;;22.99;59.01;100027.41;153968;1096;103200;-75
2021/06/29 04:46:50;;;;;;;4.80;4.30;;;;;;;23.12;58.87;100029.88;153950;1094;103140;-73
2021/06/29 04:49:55;;;;;;;5.30;4.35;;;;;;;23.25;58.54;100028.78;154056;1096;103218;-73
2021/06/29 04:52:58;;;;;;;5.00;4.50;;;;;;;23.36;58.84;100024.34;153937;1101;103223;-75
2021/06/29 04:56:01;;;;;;;4.23;3.83;;;;;;;23.45;58.15;100028.34;153997;1101;103145;-73
2021/06/29 04:59:04;;;;;;;4.60;4.20;;;;;;;23.57;58.18;100014.66;153961;1096;103483;-73
2021/06/29 05:02:07;;;;;;;5.63;4.43;;;;;;;23.68;57.69;100021.13;153911;1096;103220;-74
2021/06/29 05:05:12;;;;;;;5.30;4.43;;;;;;;23.77;57.61;100025.11;153961;1101;103188;-70
2021/06/29 05:08:15;;;;;;;6.23;4.90;;;;;;;23.87;57.93;100022.58;153984;1096;103382;-71
2021/06/29 05:11:18;;;;;;;5.55;5.05;;;;;;;23.96;57.82;100023.02;154022;1101;103103;-72
2021/06/29 05:14:21;;;;;;;5.55;4.60;;;;;;;24.04;57.50;100019.86;153958;1101;103125;-72
2021/06/29 05:17:24;;;;;;;5.43;4.90;;;;;;;24.10;57.07;100018.05;153875;1101;103150;-70
2021/06/29 05:20:27;;;;;;;6.90;5.10;;;;;;;24.19;56.92;100021.17;153851;1101;103071;-70
2021/06/29 05:23:30;;;;;;;5.60;5.00;;;;;;;24.25;56.74;100018.28;153845;1101;103252;-70
2021/06/29 05:26:33;;;;;;;6.30;4.73;;;;;;;24.30;56.86;100017.52;153856;1101;103217;-69
2021/06/29 05:29:36;;;;;;;6.70;5.00;;;;;;;24.35;56.61;100014.07;153811;1101;103595;-70
2021/06/29 05:32:39;;;;;;;5.60;5.00;;;;;;;24.40;56.65;100008.67;153808;1096;103220;-70
2021/06/29 05:35:42;;;;;;;5.40;4.90;;;;;;;24.44;56.12;100004.36;153823;1101;103237;-70
2021/06/29 05:38:45;;;;;;;7.43;5.30;;;;;;;24.47;56.56;99998.41;153811;1094;103423;-70
2021/06/29 05:41:47;;;;;;;6.03;5.27;;;;;;;24.50;55.98;99997.92;153830;1096;103221;-70
2021/06/29 05:44:50;;;;;;;5.23;4.73;;;;;;;24.52;55.83;99993.08;153828;1101;103144;-70
2021/06/29 05:47:54;;;;;;;5.13;4.63;;;;;;;24.54;55.88;99999.10;153844;1101;103217;-70
2021/06/29 05:50:57;;;;;;;6.27;5.10;;;;;;;24.55;55.80;99992.55;153916;1095;103153;-70
2021/06/29 05:54:00;;;;;;;5.00;4.60;;;;;;;24.56;55.34;99991.48;153923;1101;103221;-71
2021/06/29 05:57:05;;;;;;;5.70;4.90;;;;;;;24.59;55.57;100003.78;153835;1101;103470;-70
2021/06/29 06:00:11;;;;;;;5.73;4.80;;;;;;;24.59;56.05;99999.15;153847;1101;103246;-70
2021/06/29 06:03:18;;;;;;;5.30;4.80;;;;;;;24.61;55.63;99991.53;153848;1096;103222;-70
2021/06/29 06:06:20;;;;;;;5.05;4.50;;;;;;;24.63;55.87;100002.20;153902;1096;103137;-70
2021/06/29 06:09:23;;;;;;;5.37;4.67;;;;;;;24.65;55.25;99998.16;153896;1094;103650;-70
2021/06/29 06:12:26;;;;;;;5.17;4.60;;;;;;;24.66;55.05;100002.53;153829;1093;103703;-71
2021/06/29 06:15:29;;;;;;;4.70;4.30;;;;;;;24.66;55.24;100001.70;153817;1093;103139;-70
2021/06/29 06:18:32;;;;;;;4.93;4.43;;;;;;;24.65;55.42;100002.77;153794;1093;103217;-71
2021/06/29 06:21:35;;;;;;;5.77;4.80;;;;;;;24.66;55.46;100005.25;153893;1101;103742;-70
2021/06/29 06:24:38;;;;;;;5.75;4.55;;;;;;;24.68;55.12;100005.83;153834;1101;103377;-70
2021/06/29 06:27:41;;;;;;;4.90;4.17;;;;;;;24.71;55.07;100000.94;153874;1100;103138;-70
2021/06/29 06:30:44;;;;;;;5.05;4.10;;;;;;;24.72;54.80;100002.60;153798;1101;103155;-70
2021/06/29 06:33:47;;;;;;;4.33;3.93;;;;;;;24.71;54.59;100003.67;153821;1093;103311;-71
2021/06/29 06:36:50;;;;;;;4.40;4.00;;;;;;;24.74;54.36;100008.63;153930;1093;103490;-70
2021/06/29 06:39:52;;;;;;;4.10;3.70;;;;;;;24.73;54.72;100005.09;153904;1101;103268;-70
2021/06/29 06:42:56;;;;;;;4.55;3.75;;;;;;;24.74;54.03;99994.98;153870;1093;103675;-70
2021/06/29 06:45:58;;;;;;;7.35;4.10;;;;;;;24.76;53.99;100001.83;153901;1093;103197;-72
2021/06/29 06:49:02;;;;;;;5.20;4.00;;;;;;;24.78;53.91;99996.13;153904;1093;103570;-70
2021/06/29 06:52:07;;;;;;;4.07;3.60;;;;;;;24.79;53.67;99992.30;153891;1101;103140;-69
2021/06/29 06:55:12;;;;;;;3.87;3.57;;;;;;;24.82;53.56;99997.27;153868;1101;103190;-68
2021/06/29 06:58:15;;;;;;;3.95;3.40;;;;;;;24.88;53.02;100001.70;153881;1097;103582;-70
2021/06/29 07:01:18;;;;;;;3.93;3.30;;;;;;;24.93;52.98;99998.23;153941;1101;103337;-70
2021/06/29 07:04:21;;;;;;;3.47;3.17;;;;;;;25.01;52.03;99992.31;153862;1096;103237;-70
2021/06/29 07:07:24;;;;;;;3.97;3.53;;;;;;;25.05;51.50;99993.45;153955;1096;103464;-70
2021/06/29 07:10:27;;;;;;;3.60;3.30;;;;;;;25.08;50.70;99996.50;153695;1101;103242;-73
2021/06/29 07:13:30;;;;;;;3.40;3.10;;;;;;;25.13;51.13;99986.71;153731;1101;103224;-73
2021/06/29 07:16:33;;;;;;;3.47;3.17;;;;;;;25.20;50.79;99995.53;153997;1101;103126;-70
2021/06/29 07:19:36;;;;;;;3.47;3.03;;;;;;;25.25;50.76;99990.14;153851;1101;103147;-70
2021/06/29 07:22:40;;;;;;;3.30;3.00;;;;;;;25.32;48.99;99985.31;153870;1101;103131;-70
2021/06/29 07:25:43;;;;;;;3.43;3.13;;;;;;;25.39;49.10;99991.40;154000;1093;103567;-70
2021/06/29 07:28:46;;;;;;;4.30;3.00;;;;;;;25.41;49.46;99981.04;153909;1093;103159;-69
2021/06/29 07:31:50;;;;;;;3.53;3.23;;;;;;;25.43;50.13;99992.53;153828;1101;103132;-71
2021/06/29 07:34:52;;;;;;;4.63;3.50;;;;;;;25.47;49.22;99973.72;153837;1101;103243;-72
2021/06/29 07:37:55;;;;;;;3.33;3.00;;;;;;;25.51;49.09;99977.58;153794;1101;103219;-70
2021/06/29 07:40:58;;;;;;;4.13;3.73;;;;;;;25.56;49.36;99982.25;153849;1101;103339;-69
2021/06/29 07:44:01;;;;;;;3.60;3.23;;;;;;;25.59;48.57;99979.83;153834;1101;103390;-71
2021/06/29 07:47:05;;;;;;;3.43;3.00;;;;;;;25.66;49.33;99974.17;153810;1101;103217;-71
2021/06/29 07:50:11;;;;;;;5.15;3.75;;;;;;;25.70;48.68;99975.30;153830;1096;103514;-70
2021/06/29 07:53:14;;;;;;;3.97;3.57;;;;;;;25.72;48.97;99980.50;153866;1096;103139;-70
2021/06/29 07:56:17;;;;;;;3.80;3.50;;;;;;;25.69;47.62;99987.30;153796;1096;103214;-70
2021/06/29 07:59:21;;;;;;;3.98;3.58;;;;;;;25.74;48.27;99987.34;153930;1101;103184;-70
2021/06/29 08:02:23;;;;;;;3.68;3.38;;;;;;;25.82;47.21;99986.86;153845;1101;103167;-71
2021/06/29 08:05:26;;;;;;;3.70;3.30;;;;;;;25.84;46.88;99976.48;153808;1096;103221;-69
2021/06/29 08:08:30;;;;;;;3.70;3.40;;;;;;;25.89;45.39;99970.26;153932;1101;103233;-74
2021/06/29 08:11:35;;;;;;;3.17;2.97;;;;;;;25.97;45.46;99975.27;154007;1096;103123;-73
2021/06/29 08:14:38;;;;;;;3.40;3.10;;;;;;;26.01;45.69;99981.84;154051;1101;103263;-71
2021/06/29 08:17:41;;;;;;;3.50;3.20;;;;;;;26.03;46.12;99968.73;154298;1101;103129;-73
2021/06/29 08:20:44;;;;;;;4.28;3.68;;;;;;;25.98;46.92;99967.88;154105;1097;103141;-69
2021/06/29 08:23:47;;;;;;;4.10;2.90;;;;;;;25.99;46.33;99972.27;153904;1096;103099;-73
2021/06/29 08:26:50;;;;;;;3.63;3.30;;;;;;;26.02;46.95;99979.93;154019;1095;103141;-69
2021/06/29 08:29:56;;;;;;;4.30;3.10;;;;;;;26.04;46.91;99978.61;153797;1096;103267;-69
2021/06/29 08:32:59;;;;;;;3.60;3.30;;;;;;;26.03;46.42;99973.39;153830;1101;103477;-69
2021/06/29 08:36:03;;;;;;;3.50;3.20;;;;;;;26.04;46.46;99972.32;153827;1096;103118;-69
2021/06/29 08:39:06;;;;;;;5.37;3.10;;;;;;;26.07;45.11;99979.16;153825;1096;103156;-69
2021/06/29 08:42:10;;;;;;;3.07;2.87;;;;;;;26.11;45.82;99975.63;153812;1101;103141;-70
2021/06/29 08:45:15;;;;;;;3.28;2.95;;;;;;;26.19;45.80;99972.42;153816;1101;103276;-71
2021/06/29 08:48:19;;;;;;;3.65;3.35;;;;;;;26.23;45.93;99978.16;154055;1095;103221;-69
2021/06/29 08:51:22;;;;;;;3.70;3.30;;;;;;;26.24;44.60;99974.36;153898;1096;103208;-70
2021/06/29 08:54:25;;;;;;;3.95;3.10;;;;;;;26.30;45.63;99975.22;153888;1096;103103;-70
2021/06/29 08:57:28;;;;;;;3.90;3.50;;;;;;;26.30;44.90;99975.22;153834;1096;103594;-69
2021/06/29 09:43:21;;;;;;;2.97;2.63;;;;;;;26.15;44.07;99962.25;154207;1090;103133;-77
2021/06/29 09:46:28;;;;;;;3.97;2.90;;;;;;;26.27;43.83;99957.43;153992;1101;103761;-77
2021/06/29 09:49:33;;;;;;;4.03;2.80;;;;;;;26.40;43.16;99951.45;153942;1101;103099;-77
2021/06/29 09:52:39;;;;;;;3.20;2.90;;;;;;;26.52;43.77;99954.00;154061;1101;103263;-78
2021/06/29 09:55:45;;;;;;;3.20;2.90;;;;;;;26.64;43.09;99957.36;153941;1096;103506;-77
2021/06/29 09:58:53;;;;;;;3.23;2.87;;;;;;;26.76;41.91;99950.84;154020;1101;103122;-78
2021/06/29 10:02:11;;;;;;;3.20;2.90;;;;;;;26.87;42.00;99949.80;154098;1101;103224;-78
2021/06/29 10:05:25;;;;;;;3.13;2.93;;;;;;;26.96;40.45;99937.20;153994;1101;103190;-79
2021/06/29 10:08:34;;;;;;;3.00;2.80;;;;;;;27.01;41.27;99931.75;153912;1101;103145;-66
2021/06/29 10:11:41;;;;;;;3.95;2.65;;;;;;;27.09;41.58;99935.06;153824;1096;103259;-66
2021/06/29 10:14:46;;;;;;;2.90;2.50;;;;;;;27.19;41.35;99924.92;153890;1101;103129;-66
2021/06/29 10:17:52;;;;;;;2.80;2.60;;;;;;;27.28;41.58;99917.05;153820;1101;103198;-67
2021/06/29 10:20:59;;;;;;;2.90;2.70;;;;;;;27.33;40.61;99910.73;153802;1096;103359;-66
2021/06/29 10:24:07;;;;;;;3.27;2.97;;;;;;;27.18;41.46;99906.05;153852;1101;103239;-66
2021/06/29 10:27:12;;;;;;;3.30;3.00;;;;;;;26.99;41.59;99912.03;153787;1101;103286;-66
2021/06/29 10:30:18;;;;;;;3.00;2.80;;;;;;;27.05;41.53;99904.66;153806;1101;103148;-68
2021/06/29 10:33:24;;;;;;;3.20;2.90;;;;;;;27.02;41.57;99911.50;153808;1096;103107;-65
2021/06/29 10:36:31;;;;;;;2.97;2.77;;;;;;;27.06;42.05;99914.53;153843;1096;103107;-66
2021/06/29 10:39:37;;;;;;;3.50;2.53;;;;;;;27.05;41.72;99912.05;153832;1101;103151;-66
2021/06/29 10:42:44;;;;;;;2.60;2.40;;;;;;;27.11;41.59;99910.96;153878;1096;103266;-66
2021/06/29 10:45:52;;;;;;;2.85;2.65;;;;;;;27.19;41.97;99907.68;153904;1101;103206;-66
2021/06/29 10:48:58;;;;;;;3.30;3.00;;;;;;;27.25;39.65;99914.84;153808;1096;103103;-67
2021/06/29 10:52:09;;;;;;;3.07;2.80;;;;;;;27.33;40.96;99908.84;153544;1101;103192;-66
2021/06/29 10:55:28;;;;;;;3.30;2.87;;;;;;;27.40;41.35;99908.55;153845;1101;103142;-66
2021/06/29 10:58:42;;;;;;;2.90;2.70;;;;;;;27.48;41.21;99905.26;153952;1096;103121;-66
2021/06/29 11:01:56;;;;;;;3.10;2.77;;;;;;;27.58;41.50;99904.44;153846;1096;103154;-66
2021/06/29 11:05:03;;;;;;;2.97;2.77;;;;;;;27.63;40.86;99901.70;153922;1101;103106;-66
2021/06/29 11:08:11;;;;;;;3.00;2.80;;;;;;;27.65;41.04;99902.25;153825;1101;103531;-66
2021/06/29 11:11:16;;;;;;;2.90;2.70;;;;;;;27.60;41.46;99907.75;153765;1096;103201;-69
2021/06/29 11:14:46;;;;;;;3.07;2.67;;;;;;;27.61;40.73;99896.48;153849;1101;103302;-69
2021/06/29 11:18:01;;;;;;;4.27;2.60;;;;;;;27.68;40.45;99898.97;153862;1101;103243;-69
2021/06/29 11:21:08;;;;;;;3.53;2.40;;;;;;;27.72;40.33;99893.76;153823;1101;103195;-69
2021/06/29 11:24:43;;;;;;;2.85;2.55;;;;;;;27.75;40.51;99893.19;153777;1101;103214;-69
2021/06/29 11:28:09;;;;;;;3.33;2.80;;;;;;;27.60;39.56;99883.09;153858;1101;103237;-69
2021/06/29 11:58:27;;;;;;;2.83;2.37;;;;;;;27.56;36.54;99838.12;154155;1090;103141;-68
2021/06/29 12:01:32;;;;;;;2.87;2.67;;;;;;;27.54;38.72;99843.90;153802;1096;103196;-69
2021/06/29 12:04:38;;;;;;;2.47;2.27;;;;;;;27.47;39.33;99832.39;153814;1096;103200;-69
2021/06/29 12:07:45;;;;;;;3.03;2.70;;;;;;;27.46;39.89;99824.44;153854;1101;103196;-69
2021/06/29 12:10:53;;;;;;;3.27;2.50;;;;;;;27.44;39.99;99821.16;154008;1096;103266;-69
2021/06/29 12:13:58;;;;;;;2.80;2.60;;;;;;;27.51;37.04;99827.18;153890;1096;103190;-69
2021/06/29 12:17:04;;;;;;;2.80;2.60;;;;;;;27.56;38.60;99824.41;153908;1101;103195;-69
2021/06/29 12:20:13;;;;;;;2.80;2.30;;;;;;;27.55;39.33;99811.83;153848;1096;103132;-68
2021/06/29 12:23:21;;;;;;;2.67;2.20;;;;;;;27.56;38.21;99807.97;153844;1101;103177;-69
2021/06/29 12:26:32;;;;;;;2.30;2.10;;;;;;;27.69;37.26;99812.88;153822;1096;103212;-70
2021/06/29 12:29:37;;;;;;;2.30;2.10;;;;;;;27.83;36.98;99796.69;153928;1101;103118;-69
2021/06/29 12:32:45;;;;;;;2.60;2.33;;;;;;;27.95;36.77;99796.41;153930;1101;103120;-69
2021/06/29 12:35:52;;;;;;;3.00;2.40;;;;;;;28.03;37.50;99801.30;153963;1096;103317;-69
2021/06/29 12:39:00;;;;;;;2.30;2.10;;;;;;;28.06;37.10;99794.42;153880;1096;103118;-69
2021/06/29 12:42:14;;;;;;;2.53;2.33;;;;;;;28.06;38.16;99789.78;153817;1101;103279;-69
2021/06/29 12:45:21;;;;;;;2.57;2.37;;;;;;;28.06;37.73;99786.20;153867;1101;103128;-69
2021/06/29 12:48:26;;;;;;;2.90;2.53;;;;;;;28.09;36.48;99780.16;153846;1101;103233;-69
2021/06/29 12:51:32;;;;;;;2.80;2.60;;;;;;;28.06;37.22;99778.81;153576;1101;103196;-69
2021/06/29 12:54:39;;;;;;;3.80;2.87;;;;;;;28.09;36.99;99775.48;153898;1101;103230;-69
2021/06/29 12:57:45;;;;;;;2.60;2.40;;;;;;;28.12;37.26;99772.20;153813;1101;103214;-69
2021/06/29 13:23:23;;;;;;;2.20;2.05;;;;;;;28.34;36.03;99741.61;154069;1090;103119;-66
2021/06/29 13:26:30;;;;;;;2.40;2.20;;;;;;;28.38;36.79;99745.42;153822;1096;103171;-69
2021/06/29 13:29:37;;;;;;;2.73;2.30;;;;;;;28.35;37.09;99747.91;153877;1097;103166;-67
2021/06/29 13:32:46;;;;;;;2.40;2.20;;;;;;;28.23;37.19;99736.47;153888;1101;103153;-67
2021/06/29 13:35:56;;;;;;;2.97;2.77;;;;;;;28.10;38.10;99727.77;153868;1101;103231;-70
2021/06/29 13:39:01;;;;;;;4.25;2.60;;;;;;;28.06;37.46;99729.45;153891;1101;103122;-67
2021/06/29 13:42:17;;;;;;;3.40;3.10;;;;;;;27.97;37.65;99731.94;153738;1097;103281;-67
2021/06/29 13:45:32;;;;;;;3.97;3.03;;;;;;;27.98;38.18;99721.78;153933;1101;103142;-69
2021/06/29 13:48:38;;;;;;;3.00;2.70;;;;;;;28.03;38.10;99715.47;153892;1096;103608;-73
2021/06/29 13:51:43;;;;;;;2.80;2.60;;;;;;;28.11;38.48;99714.88;154104;1096;103266;-72
2021/06/29 13:55:06;;;;;;;2.70;2.50;;;;;;;28.14;38.15;99715.13;154006;1101;103165;-73
2021/06/29 13:58:23;;;;;;;2.70;2.50;;;;;;;28.15;38.28;99707.71;154097;1101;103134;-72
2021/06/29 14:01:31;;;;;;;2.70;2.50;;;;;;;28.15;38.55;99700.30;153992;1101;103147;-71
2021/06/29 14:04:53;;;;;;;3.20;2.90;;;;;;;28.08;38.15;99694.33;154082;1096;103195;-68
2021/06/29 14:08:22;;;;;;;3.10;2.80;;;;;;;28.06;38.68;99690.20;153899;1101;103206;-70
2021/06/29 14:11:27;;;;;;;3.53;2.67;;;;;;;28.06;38.71;99680.08;154229;1101;103493;-70
2021/06/29 14:14:32;;;;;;;3.67;2.80;;;;;;;27.99;38.83;99674.08;154030;1101;103149;-74
2021/06/29 14:17:37;;;;;;;2.60;2.40;;;;;;;27.98;38.90;99672.42;154021;1096;103221;-72
2021/06/29 14:20:42;;;;;;;2.90;2.53;;;;;;;27.94;38.73;99674.09;153978;1101;103178;-73
2021/06/29 14:23:49;;;;;;;3.37;2.80;;;;;;;27.91;38.61;99671.94;154029;1101;103234;-69
2021/06/29 14:26:54;;;;;;;3.70;2.97;;;;;;;27.85;39.21;99678.50;153794;1096;103215;-70
2021/06/29 14:29:59;;;;;;;5.53;2.87;;;;;;;27.83;38.68;99665.09;153845;1101;103157;-70
2021/06/29 14:33:05;;;;;;;3.20;2.90;;;;;;;27.82;39.15;99666.18;153763;1101;103128;-69
2021/06/29 14:36:11;;;;;;;3.07;2.80;;;;;;;27.81;38.83;99659.88;153835;1096;103192;-69
2021/06/29 14:39:16;;;;;;;3.73;2.97;;;;;;;27.85;39.08;99651.92;153867;1101;103586;-69
2021/06/29 14:42:21;;;;;;;3.10;2.80;;;;;;;27.87;38.84;99654.35;153846;1096;103247;-69
2021/06/29 14:45:26;;;;;;;2.93;2.73;;;;;;;27.91;38.17;99656.30;153857;1101;103114;-68
2021/06/29 14:48:31;;;;;;;3.17;2.80;;;;;;;27.94;38.72;99652.16;153825;1096;103129;-68
2021/06/29 14:51:36;;;;;;;3.23;2.70;;;;;;;27.94;38.79;99650.23;153847;1096;103199;-68
2021/06/29 14:54:41;;;;;;;3.13;2.63;;;;;;;27.98;38.58;99655.97;155724;1096;103489;-68
2021/06/29 14:57:47;;;;;;;3.20;2.63;;;;;;;28.07;38.80;99637.00;153839;1101;103210;-67
2021/06/29 15:00:52;;;;;;;2.80;2.60;;;;;;;28.12;38.81;99640.54;153838;1101;103218;-69
2021/06/29 15:03:58;;;;;;;3.63;2.90;;;;;;;28.17;38.83;99634.99;153784;1101;103135;-69
2021/06/29 15:07:03;;;;;;;3.60;2.53;;;;;;;28.27;38.80;99630.55;153844;1096;103128;-67
2021/06/29 15:10:10;;;;;;;3.17;2.80;;;;;;;28.31;39.03;99626.13;153808;1101;103260;-66
2021/06/29 15:13:16;;;;;;;2.90;2.70;;;;;;;28.34;38.50;99620.08;153843;1096;103148;-67
2021/06/29 15:16:21;;;;;;;3.43;2.97;;;;;;;28.38;37.64;99618.39;153842;1101;103499;-65
2021/06/29 15:19:26;;;;;;;3.00;2.80;;;;;;;28.41;38.58;99620.57;153984;1096;103123;-67
2021/06/29 15:22:31;;;;;;;2.77;2.57;;;;;;;28.37;38.83;99619.52;153814;1096;103128;-68
2021/06/29 15:25:37;;;;;;;3.80;2.65;;;;;;;28.30;38.39;99616.27;153783;1096;103267;-68
2021/06/29 15:28:42;;;;;;;3.10;2.80;;;;;;;28.26;38.71;99617.95;153818;1096;103245;-69
2021/06/29 15:31:47;;;;;;;3.00;2.70;;;;;;;28.24;39.02;99620.16;153832;1101;103235;-69
2021/06/29 15:34:53;;;;;;;2.80;2.60;;;;;;;28.17;38.74;99621.28;153880;1096;103155;-67
2021/06/29 15:37:59;;;;;;;2.87;2.67;;;;;;;28.14;38.91;99616.38;153853;1101;103300;-69
2021/06/29 15:41:05;;;;;;;2.87;2.67;;;;;;;28.10;38.48;99611.73;153803;1101;103182;-70